Hlavní strana
METAR-TAF:

METAR-TAF

Letiště :

Letiště Haneda

Tokio-Haneda, Japonsko

zeměpisná šířka: 35-33N, zeměpisná délka: 139-47E, výška: 5 m

Aktuální stav počasí

Zpráva byla vytvořena před 16 minutami, v 23:30 UTC
Severoseverozápadní vítr 19 kt
Teplota 9°C
Vlhkost vzduchu 43%
Tlak 1020 hPa
Viditelnost 10 km a více
Skoro jasno ve výšce 2000 ft

METAR: RJTT 132330Z 34019KT 9999 FEW020 09/M03 Q1020 TEMPO 34022G32KT

Čas: 08:46 (23:46 UTC)

Předpověď počasí

Zpráva byla vytvořena před 40 minutami, v 23:06 UTC
Předpověď platná od 14 v 00 UTC do 15 v 06 UTC
Severní vítr 18 kt
Viditelnost 10 km a více
Skoro jasno ve výšce 3000 ft
Dočasný
od 14 v 00 UTC do 14 v 02 UTC
Severoseverozápadní vítr 22 kt s nárazy do 32 kt

TAF: RJTT 132306Z 1400/1506 36018KT 9999 FEW030 TEMPO 1400/1402 34022G32KT

Stav a předpovědi počasí z více než 4 000 letišť (zprávy METAR a TAF).

Červené a žluté tečky na mapě představují dostupné meteorologické stanice.

Když kurzor umístíte na tečku, zobrazí se název stanice.

Pak kliknutím zobrazíte stav a předpověď počasí.

Chcete-li změnit mapu, kliknutím na zelené tlačítko se znaménkem +mapu přiblížíte, kliknutím na zelené tlačítko se znaménkem – mapu oddálíte a kliknutím na zelené šipky přejdete na sousední mapy.


METAR-TAF: